createdAt,value
2019-03-25T00:01:15.921Z,100423.91
2019-03-25T00:03:48.316Z,100426.22
2019-03-25T00:06:21.104Z,100419.04
2019-03-25T00:09:05.039Z,100419.41
2019-03-25T00:11:29.264Z,100416.25
2019-03-25T00:14:02.040Z,100421.70
2019-03-25T00:16:34.549Z,100427.55
2019-03-25T00:19:06.897Z,100425.56
2019-03-25T00:21:39.574Z,100426.18
2019-03-25T00:24:11.851Z,100427.92
2019-03-25T00:26:44.226Z,100418.02
2019-03-25T00:29:16.565Z,100422.14
2019-03-25T00:31:48.894Z,100428.36
2019-03-25T00:34:21.127Z,100439.97
2019-03-25T00:36:53.473Z,100447.14
2019-03-25T00:39:25.744Z,100449.37
2019-03-25T00:41:58.041Z,100453.54
2019-03-25T00:44:30.350Z,100443.08
2019-03-25T00:47:02.928Z,100447.64
2019-03-25T00:49:35.463Z,100444.08
2019-03-25T00:52:07.778Z,100445.29
2019-03-25T00:54:49.539Z,100445.66
2019-03-25T00:57:14.091Z,100443.19
2019-03-25T00:59:48.922Z,100443.02
2019-03-25T01:02:20.584Z,100445.58
2019-03-25T01:04:52.863Z,100450.78
2019-03-25T01:07:25.190Z,100452.86
2019-03-25T01:09:57.495Z,100459.13
2019-03-25T01:12:29.811Z,100459.51
2019-03-25T01:15:02.069Z,100458.31
2019-03-25T01:17:34.858Z,100453.95
2019-03-25T01:20:08.357Z,100451.03
2019-03-25T01:22:40.757Z,100450.04
2019-03-25T01:25:13.068Z,100450.16
2019-03-25T01:27:45.338Z,100447.42
2019-03-25T01:30:17.658Z,100444.99
2019-03-25T01:32:49.991Z,100443.27
2019-03-25T01:35:22.306Z,100446.18
2019-03-25T01:37:54.633Z,100443.08
2019-03-25T01:40:26.911Z,100444.05
2019-03-25T01:42:59.221Z,100450.92
2019-03-25T01:45:31.487Z,100445.40
2019-03-25T01:48:03.837Z,100446.05
2019-03-25T01:50:36.725Z,100439.20
2019-03-25T01:53:09.409Z,100445.72
2019-03-25T01:55:41.702Z,100457.86
2019-03-25T01:58:14.046Z,100436.02
2019-03-25T02:00:46.341Z,100448.22
2019-03-25T02:03:18.604Z,100440.81
2019-03-25T02:05:50.909Z,100443.16
2019-03-25T02:08:23.176Z,100453.98
2019-03-25T02:10:55.714Z,100445.64
2019-03-25T02:13:27.973Z,100452.76
2019-03-25T02:16:00.659Z,100447.39
2019-03-25T02:18:33.860Z,100456.83
2019-03-25T02:21:07.409Z,100456.16
2019-03-25T02:23:39.695Z,100451.88
2019-03-25T02:26:11.997Z,100451.45
2019-03-25T02:28:44.399Z,100442.88
2019-03-25T02:31:16.714Z,100451.52
2019-03-25T02:33:49.025Z,100443.62
2019-03-25T02:36:21.427Z,100443.54
2019-03-25T02:38:53.775Z,100445.48
2019-03-25T02:41:26.097Z,100447.96
2019-03-25T02:43:58.868Z,100441.75
2019-03-25T02:46:31.138Z,100436.13
2019-03-25T02:49:03.443Z,100452.88
2019-03-25T02:51:35.743Z,100442.30
2019-03-25T02:54:08.483Z,100448.62
2019-03-25T02:56:40.764Z,100448.48
2019-03-25T02:59:13.022Z,100446.59
2019-03-25T03:01:45.322Z,100439.38
2019-03-25T03:04:17.716Z,100440.44
2019-03-25T03:06:49.994Z,100439.89
2019-03-25T03:09:22.278Z,100439.20
2019-03-25T03:11:54.580Z,100434.78
2019-03-25T03:14:26.873Z,100434.02
2019-03-25T03:17:00.691Z,100430.51
2019-03-25T03:19:33.027Z,100438.79
2019-03-25T03:22:06.725Z,100430.84
2019-03-25T03:24:39.025Z,100431.08
2019-03-25T03:27:11.805Z,100431.05
2019-03-25T03:29:44.100Z,100424.58
2019-03-25T03:32:16.356Z,100428.00
2019-03-25T03:34:49.100Z,100434.14
2019-03-25T03:37:21.406Z,100421.60
2019-03-25T03:39:53.719Z,100426.11
2019-03-25T03:42:26.150Z,100427.41
2019-03-25T03:44:58.464Z,100421.69
2019-03-25T03:47:30.798Z,100431.38
2019-03-25T03:50:03.465Z,100417.28
2019-03-25T03:52:36.497Z,100408.80
2019-03-25T03:55:08.852Z,100415.89
2019-03-25T03:57:41.226Z,100417.47
2019-03-25T04:00:18.487Z,100416.61
2019-03-25T04:02:50.754Z,100407.50
2019-03-25T04:05:23.055Z,100410.69
2019-03-25T04:07:55.427Z,100414.27
2019-03-25T04:10:28.053Z,100409.80
2019-03-25T04:13:00.675Z,100414.27
2019-03-25T04:15:34.525Z,100412.58
2019-03-25T04:18:07.317Z,100414.03
2019-03-25T04:20:39.575Z,100413.87
2019-03-25T04:23:11.889Z,100412.89
2019-03-25T04:25:44.207Z,100420.20
2019-03-25T04:28:16.564Z,100416.91
2019-03-25T04:30:48.907Z,100407.66
2019-03-25T04:33:21.166Z,100410.84
2019-03-25T04:35:53.443Z,100414.53
2019-03-25T04:38:25.761Z,100409.86
2019-03-25T04:40:58.017Z,100415.30
2019-03-25T04:43:30.321Z,100411.05
2019-03-25T04:46:03.234Z,100410.67
2019-03-25T04:48:35.545Z,100413.95
2019-03-25T04:51:08.052Z,100414.53
2019-03-25T04:53:40.804Z,100401.78
2019-03-25T04:56:13.055Z,100408.47
2019-03-25T04:58:45.483Z,100418.96
2019-03-25T05:01:17.730Z,100413.34
2019-03-25T05:03:50.054Z,100412.43
2019-03-25T05:06:24.197Z,100409.27
2019-03-25T05:08:56.493Z,100412.84
2019-03-25T05:11:30.794Z,100413.05
2019-03-25T05:14:04.177Z,100413.75
2019-03-25T05:16:36.487Z,100412.44
2019-03-25T05:19:08.734Z,100411.77
2019-03-25T05:21:41.109Z,100418.04
2019-03-25T05:24:13.441Z,100419.23
2019-03-25T05:26:50.985Z,100422.32
2019-03-25T05:29:19.688Z,100426.01
2019-03-25T05:31:51.947Z,100420.31
2019-03-25T05:34:24.252Z,100415.59
2019-03-25T05:36:56.596Z,100419.72
2019-03-25T05:39:28.873Z,100420.09
2019-03-25T05:42:02.864Z,100424.88
2019-03-25T05:44:35.164Z,100417.41
2019-03-25T05:47:07.485Z,100426.63
2019-03-25T05:49:39.773Z,100423.90
2019-03-25T05:52:12.041Z,100432.44
2019-03-25T05:54:44.285Z,100424.20
2019-03-25T05:57:16.533Z,100430.99
2019-03-25T05:59:48.805Z,100429.02
2019-03-25T06:02:21.047Z,100431.59
2019-03-25T06:04:53.316Z,100437.53
2019-03-25T06:07:25.676Z,100441.19
2019-03-25T06:09:57.939Z,100436.62
2019-03-25T06:12:30.269Z,100444.61
2019-03-25T06:15:04.805Z,100451.08
2019-03-25T06:17:37.137Z,100445.73
2019-03-25T06:20:09.453Z,100444.44
2019-03-25T06:22:41.779Z,100450.70
2019-03-25T06:25:14.030Z,100454.39
2019-03-25T06:27:46.266Z,100455.38
2019-03-25T06:30:18.591Z,100467.43
2019-03-25T06:32:50.879Z,100471.01
2019-03-25T06:35:23.169Z,100464.90
2019-03-25T06:37:55.810Z,100473.48
2019-03-25T06:40:28.101Z,100473.45
2019-03-25T06:43:00.418Z,100477.63
2019-03-25T06:45:33.877Z,100476.03
2019-03-25T06:48:06.138Z,100481.04
2019-03-25T06:50:38.449Z,100485.06
2019-03-25T06:53:10.727Z,100485.20
2019-03-25T06:55:43.038Z,100490.36
2019-03-25T06:58:15.324Z,100496.09
2019-03-25T07:00:47.573Z,100488.13
2019-03-25T07:03:19.865Z,100502.52
2019-03-25T07:05:52.116Z,100500.27
2019-03-25T07:08:24.372Z,100504.03
2019-03-25T07:10:57.075Z,100495.55
2019-03-25T07:13:29.652Z,100499.92
2019-03-25T07:16:02.324Z,100505.02
2019-03-25T07:18:34.609Z,100500.87
2019-03-25T07:21:06.859Z,100495.76
2019-03-25T07:23:50.549Z,100498.03
2019-03-25T07:26:22.798Z,100501.98
2019-03-25T07:28:55.096Z,100505.16
2019-03-25T07:31:27.354Z,100509.75
2019-03-25T07:33:59.656Z,100504.98
2019-03-25T07:36:31.967Z,100513.27
2019-03-25T07:39:04.837Z,100507.84
2019-03-25T07:41:38.732Z,100510.48
2019-03-25T07:44:11.117Z,100509.16
2019-03-25T07:46:43.409Z,100515.58
2019-03-25T07:49:15.783Z,100515.27
2019-03-25T07:51:48.043Z,100507.02
2019-03-25T07:54:20.307Z,100499.73
2019-03-25T07:56:52.717Z,100499.59
2019-03-25T07:59:25.071Z,100498.11
2019-03-25T08:01:57.836Z,100503.74
2019-03-25T08:04:30.079Z,100491.37
2019-03-25T08:07:04.301Z,100489.64
2019-03-25T08:09:36.536Z,100492.02
2019-03-25T08:12:09.011Z,100486.84
2019-03-25T08:14:49.022Z,100485.54
2019-03-25T08:17:21.398Z,100484.80
2019-03-25T08:19:53.790Z,100481.18
2019-03-25T08:22:26.046Z,100479.23
2019-03-25T08:24:58.304Z,100485.47
2019-03-25T08:27:30.555Z,100479.05
2019-03-25T08:30:05.259Z,100480.83
2019-03-25T08:32:37.573Z,100482.22
2019-03-25T08:35:10.940Z,100475.10
2019-03-25T08:37:43.229Z,100481.34
2019-03-25T08:40:15.542Z,100482.59
2019-03-25T08:42:47.807Z,100480.60
2019-03-25T08:45:20.070Z,100479.09
2019-03-25T08:47:52.417Z,100482.91
2019-03-25T08:50:24.694Z,100483.83
2019-03-25T08:52:56.934Z,100481.16
2019-03-25T08:55:29.225Z,100479.61
2019-03-25T08:58:11.558Z,100481.13
2019-03-25T09:00:37.540Z,100476.07
2019-03-25T09:03:10.989Z,100478.64
2019-03-25T09:05:43.242Z,100475.08
2019-03-25T09:08:15.602Z,100470.00
2019-03-25T09:10:47.869Z,100473.91
2019-03-25T09:13:20.141Z,100474.52
2019-03-25T09:15:52.420Z,100476.16
2019-03-25T09:18:24.667Z,100475.41
2019-03-25T09:20:56.922Z,100470.14
2019-03-25T09:23:29.174Z,100471.91
2019-03-25T09:26:02.848Z,100463.09
2019-03-25T09:28:36.299Z,100465.75
2019-03-25T09:31:18.903Z,100468.52
2019-03-25T09:33:51.204Z,100466.55
2019-03-25T09:36:23.567Z,100471.17
2019-03-25T09:38:55.815Z,100469.75
2019-03-25T09:41:28.074Z,100468.16
2019-03-25T09:44:00.335Z,100461.23
2019-03-25T09:46:33.014Z,100461.27
2019-03-25T09:49:05.984Z,100455.73
2019-03-25T09:51:38.243Z,100465.39
2019-03-25T09:54:10.552Z,100457.41
2019-03-25T09:56:42.810Z,100452.05
2019-03-25T09:59:16.562Z,100450.91
2019-03-25T10:01:48.817Z,100450.60
2019-03-25T10:04:21.130Z,100450.72
2019-03-25T10:06:53.428Z,100451.64
2019-03-25T10:09:25.793Z,100448.53
2019-03-25T10:11:58.075Z,100450.84
2019-03-25T10:14:30.351Z,100458.52
2019-03-25T10:17:02.885Z,100453.39
2019-03-25T10:19:35.127Z,100448.72
2019-03-25T10:22:09.064Z,100454.83
2019-03-25T10:24:41.360Z,100452.33
2019-03-25T10:27:13.608Z,100444.09
2019-03-25T10:29:46.406Z,100445.75
2019-03-25T10:32:18.690Z,100442.20
2019-03-25T10:34:50.956Z,100437.78
2019-03-25T10:37:23.240Z,100433.70
2019-03-25T10:39:55.509Z,100437.72
2019-03-25T10:42:27.820Z,100433.80
2019-03-25T10:45:02.053Z,100422.86
2019-03-25T10:47:35.706Z,100420.10
2019-03-25T10:50:08.047Z,100415.57
2019-03-25T10:52:40.388Z,100409.17
2019-03-25T10:55:12.654Z,100413.56
2019-03-25T10:57:44.946Z,100413.42
2019-03-25T11:00:17.280Z,100405.20
2019-03-25T11:02:49.719Z,100408.64
2019-03-25T11:05:22.349Z,100404.97
2019-03-25T11:07:56.180Z,100401.83
2019-03-25T11:10:28.483Z,100406.22
2019-03-25T11:13:00.798Z,100402.59
2019-03-25T11:15:33.122Z,100388.57
2019-03-25T11:18:05.939Z,100390.51
2019-03-25T11:20:38.265Z,100391.67
2019-03-25T11:23:10.518Z,100385.14
2019-03-25T11:25:43.082Z,100377.52
2019-03-25T11:28:15.397Z,100380.80
2019-03-25T11:30:52.294Z,100376.53
2019-03-25T11:33:24.857Z,100370.13
2019-03-25T11:35:57.179Z,100362.36
2019-03-25T11:38:29.475Z,100362.27
2019-03-25T11:41:03.457Z,100352.14
2019-03-25T11:43:35.876Z,100360.19
2019-03-25T11:46:08.159Z,100354.81
2019-03-25T11:48:40.456Z,100348.73
2019-03-25T11:51:12.765Z,100343.69
2019-03-25T11:53:45.135Z,100336.39
2019-03-25T11:56:17.406Z,100339.34
2019-03-25T11:58:49.746Z,100328.20
2019-03-25T12:01:22.089Z,100319.21
2019-03-25T12:03:54.382Z,100319.91
2019-03-25T12:06:26.660Z,100318.75
2019-03-25T12:08:59.020Z,100315.45
2019-03-25T12:11:31.417Z,100314.86
2019-03-25T12:14:03.726Z,100306.67
2019-03-25T12:16:35.996Z,100298.58
2019-03-25T12:19:10.118Z,100296.64
2019-03-25T12:21:42.439Z,100290.67
2019-03-25T12:24:14.684Z,100288.93
2019-03-25T12:26:47.016Z,100287.37
2019-03-25T12:29:29.610Z,100285.41
2019-03-25T12:31:54.245Z,100287.31
2019-03-25T12:34:28.183Z,100280.05
2019-03-25T12:37:00.648Z,100285.34
2019-03-25T12:39:32.885Z,100276.34
2019-03-25T12:42:05.786Z,100275.69
2019-03-25T12:44:38.044Z,100270.77
2019-03-25T12:47:10.390Z,100267.06
2019-03-25T12:49:43.298Z,100258.44
2019-03-25T12:52:15.604Z,100257.08
2019-03-25T12:54:47.900Z,100253.54
2019-03-25T12:57:20.164Z,100263.84
2019-03-25T12:59:52.817Z,100249.64
2019-03-25T13:02:25.060Z,100244.57
2019-03-25T13:04:57.379Z,100244.73
2019-03-25T13:07:29.778Z,100240.67
2019-03-25T13:10:02.087Z,100236.61
2019-03-25T13:12:34.462Z,100226.26
2019-03-25T13:15:09.601Z,100222.89
2019-03-25T13:17:41.888Z,100230.86
2019-03-25T13:20:14.152Z,100215.44
2019-03-25T13:22:46.446Z,100215.27
2019-03-25T13:25:18.692Z,100210.02
2019-03-25T13:27:51.010Z,100207.34
2019-03-25T13:30:23.255Z,100208.31
2019-03-25T13:32:55.664Z,100199.32
2019-03-25T13:35:27.965Z,100198.61
2019-03-25T13:38:00.268Z,100187.94
2019-03-25T13:40:34.058Z,100185.77
2019-03-25T13:43:06.342Z,100172.08
2019-03-25T13:45:38.718Z,100167.28
2019-03-25T13:48:11.540Z,100158.22
2019-03-25T13:50:44.146Z,100158.91
2019-03-25T13:53:16.493Z,100148.59
2019-03-25T13:55:48.751Z,100143.19
2019-03-25T13:58:21.034Z,100144.66
2019-03-25T14:00:53.709Z,100140.98
2019-03-25T14:03:26.084Z,100127.75
2019-03-25T14:05:58.781Z,100125.28
2019-03-25T14:08:32.032Z,100126.52
2019-03-25T14:11:04.559Z,100114.41
2019-03-25T14:13:37.048Z,100109.16
2019-03-25T14:16:09.369Z,100103.63
2019-03-25T14:18:41.621Z,100098.19
2019-03-25T14:21:14.908Z,100102.39
2019-03-25T14:23:47.146Z,100103.94
2019-03-25T14:26:19.443Z,100094.25
2019-03-25T14:28:51.684Z,100081.83
2019-03-25T14:31:23.960Z,100081.17
2019-03-25T14:33:56.247Z,100082.34
2019-03-25T14:36:28.544Z,100080.35
2019-03-25T14:39:00.809Z,100077.91
2019-03-25T14:41:35.204Z,100078.38
2019-03-25T14:44:07.436Z,100068.03
2019-03-25T14:46:39.751Z,100068.29
2019-03-25T14:49:13.409Z,100062.67
2019-03-25T14:51:45.644Z,100070.30
2019-03-25T14:54:19.738Z,100061.70
2019-03-25T14:56:52.005Z,100060.95
2019-03-25T14:59:24.277Z,100051.59
2019-03-25T15:01:56.718Z,100052.25
2019-03-25T15:04:28.963Z,100042.83
2019-03-25T15:07:02.215Z,100049.20
2019-03-25T15:09:34.479Z,100046.57
2019-03-25T15:12:06.813Z,100038.02
2019-03-25T15:14:40.619Z,100041.77
2019-03-25T15:17:14.493Z,100029.98
2019-03-25T15:19:48.881Z,100032.76
2019-03-25T15:22:23.100Z,100025.55
2019-03-25T15:24:55.879Z,100021.25
2019-03-25T15:27:28.163Z,100019.98
2019-03-25T15:30:00.393Z,100018.06
2019-03-25T15:32:32.867Z,100015.75
2019-03-25T15:35:05.712Z,100009.80
2019-03-25T15:37:38.051Z,100009.17
2019-03-25T15:40:11.096Z,100008.30
2019-03-25T15:42:45.311Z,100007.10
2019-03-25T15:45:22.385Z,100008.03
2019-03-25T15:47:58.885Z,99999.43
2019-03-25T15:50:34.358Z,99993.33
2019-03-25T15:53:10.779Z,99988.08
2019-03-25T15:55:45.441Z,99990.41
2019-03-25T15:58:26.195Z,99980.94
2019-03-25T16:00:55.732Z,99989.50
2019-03-25T16:03:27.965Z,99993.78
2019-03-25T16:06:00.207Z,99989.85
2019-03-25T16:08:32.972Z,99983.48
2019-03-25T16:11:06.213Z,99987.91
2019-03-25T16:13:38.522Z,99978.77
2019-03-25T16:16:10.769Z,99971.96
2019-03-25T16:18:43.368Z,99972.13
2019-03-25T16:21:15.660Z,99970.29
2019-03-25T16:23:47.904Z,99967.90
2019-03-25T16:26:20.187Z,99971.25
2019-03-25T16:28:52.481Z,99971.62
2019-03-25T16:31:24.860Z,99966.88
2019-03-25T16:33:57.174Z,99963.13
2019-03-25T16:36:29.508Z,99963.70
2019-03-25T16:39:01.754Z,99955.80
2019-03-25T16:41:35.567Z,99962.05
2019-03-25T16:44:07.816Z,99960.34
2019-03-25T16:46:40.090Z,99960.84
2019-03-25T16:49:12.711Z,99953.94
2019-03-25T16:51:44.946Z,99960.84
2019-03-25T16:54:17.213Z,99959.49
2019-03-25T16:56:49.486Z,99958.70
2019-03-25T16:59:22.144Z,99958.50
2019-03-25T17:01:54.386Z,99959.54
2019-03-25T17:04:26.630Z,99962.30
2019-03-25T17:06:58.862Z,99962.47
2019-03-25T17:09:31.099Z,99963.47
2019-03-25T17:12:03.375Z,99960.77
2019-03-25T17:14:35.624Z,99970.75
2019-03-25T17:17:07.877Z,99967.39
2019-03-25T17:19:40.122Z,99961.97
2019-03-25T17:22:12.360Z,99969.23
2019-03-25T17:24:44.596Z,99961.95
2019-03-25T17:27:16.902Z,99968.53
2019-03-25T17:29:49.150Z,99963.66
2019-03-25T17:32:21.469Z,99963.14
2019-03-25T17:34:53.881Z,99965.50
2019-03-25T17:37:26.107Z,99960.59
2019-03-25T17:39:58.357Z,99956.20
2019-03-25T17:42:31.820Z,99956.70
2019-03-25T17:45:04.204Z,99965.63
2019-03-25T17:47:36.460Z,99965.09
2019-03-25T17:50:10.109Z,99968.65
2019-03-25T17:52:42.359Z,99963.25
2019-03-25T17:55:14.602Z,99968.41
2019-03-25T17:57:46.914Z,99968.23
2019-03-25T18:00:35.850Z,99963.64
2019-03-25T18:03:12.272Z,99972.39
2019-03-25T18:05:44.532Z,99962.73
2019-03-25T18:08:16.779Z,99960.52
2019-03-25T18:10:49.024Z,99970.08
2019-03-25T18:13:22.645Z,99969.39
2019-03-25T18:15:55.353Z,99972.87
2019-03-25T18:18:27.572Z,99968.22
2019-03-25T18:20:59.826Z,99969.87
2019-03-25T18:23:34.962Z,99963.99
2019-03-25T18:26:07.203Z,99970.95
2019-03-25T18:28:39.725Z,99968.03
2019-03-25T18:31:12.026Z,99962.20
2019-03-25T18:33:44.270Z,99968.91
2019-03-25T18:36:16.616Z,99968.13
2019-03-25T18:38:48.884Z,99967.27
2019-03-25T18:41:23.812Z,99965.17
2019-03-25T18:43:56.253Z,99968.10
2019-03-25T18:46:28.480Z,99966.70
2019-03-25T18:49:00.713Z,99969.19
2019-03-25T18:51:33.031Z,99962.76
2019-03-25T18:54:05.345Z,99973.22
2019-03-25T18:59:10.443Z,99972.31
2019-03-25T19:01:42.373Z,99971.28
2019-03-25T19:04:14.641Z,99966.06
2019-03-25T19:06:47.377Z,99977.47
2019-03-25T19:09:19.632Z,99974.62
2019-03-25T19:11:51.863Z,99983.86
2019-03-25T19:14:24.104Z,99982.56
2019-03-25T19:16:56.397Z,99987.53
2019-03-25T19:19:29.671Z,99990.12
2019-03-25T19:22:05.216Z,99989.38
2019-03-25T19:24:37.215Z,99995.55
2019-03-25T19:27:09.546Z,99994.69
2019-03-25T19:29:41.826Z,99995.23
2019-03-25T19:32:15.865Z,99998.94
2019-03-25T19:34:48.100Z,100003.34
2019-03-25T19:37:20.343Z,100005.27
2019-03-25T19:39:53.743Z,100015.48
2019-03-25T19:42:26.057Z,100012.95
2019-03-25T19:44:58.407Z,100017.13
2019-03-25T19:47:30.695Z,100016.55
2019-03-25T19:50:03.293Z,100022.84
2019-03-25T19:52:35.553Z,100023.14
2019-03-25T19:55:07.816Z,100035.02
2019-03-25T19:57:40.155Z,100036.14
2019-03-25T20:00:12.398Z,100044.03
2019-03-25T20:02:46.575Z,100045.10
2019-03-25T20:05:19.266Z,100055.77
2019-03-25T20:07:51.522Z,100052.36
2019-03-25T20:10:30.958Z,100057.55
2019-03-25T20:13:03.323Z,100062.73
2019-03-25T20:15:45.516Z,100060.89
2019-03-25T20:18:09.656Z,100067.93
2019-03-25T20:20:41.929Z,100073.30
2019-03-25T20:23:14.239Z,100068.94
2019-03-25T20:25:46.491Z,100075.77
2019-03-25T20:28:18.739Z,100073.98
2019-03-25T20:30:51.026Z,100082.22
2019-03-25T20:33:23.386Z,100082.71
2019-03-25T20:35:55.769Z,100085.39
2019-03-25T20:38:28.067Z,100102.00
2019-03-25T20:41:00.407Z,100098.64
2019-03-25T20:43:33.142Z,100105.39
2019-03-25T20:46:05.481Z,100109.45
2019-03-25T20:48:38.048Z,100114.66
2019-03-25T20:51:12.233Z,100104.53
2019-03-25T20:53:45.042Z,100112.94
2019-03-25T20:56:17.436Z,100112.42
2019-03-25T20:58:49.690Z,100112.13
2019-03-25T21:01:22.427Z,100117.14
2019-03-25T21:03:54.705Z,100121.48
2019-03-25T21:06:28.158Z,100123.73
2019-03-25T21:09:00.405Z,100125.22
2019-03-25T21:11:34.231Z,100126.67
2019-03-25T21:14:06.729Z,100131.14
2019-03-25T21:16:41.284Z,100134.41
2019-03-25T21:19:13.644Z,100134.72
2019-03-25T21:21:45.967Z,100138.30
2019-03-25T21:24:18.702Z,100144.91
2019-03-25T21:26:52.121Z,100148.87
2019-03-25T21:29:24.446Z,100151.45
2019-03-25T21:31:57.334Z,100152.82
2019-03-25T21:34:29.665Z,100153.56
2019-03-25T21:37:02.075Z,100155.84
2019-03-25T21:39:34.453Z,100166.42
2019-03-25T21:42:07.193Z,100168.48
2019-03-25T21:44:39.521Z,100171.25
2019-03-25T21:47:11.849Z,100179.02
2019-03-25T21:49:44.225Z,100174.14
2019-03-25T21:52:16.619Z,100176.70
2019-03-25T21:54:49.223Z,100185.55
2019-03-25T21:57:21.493Z,100187.36
2019-03-25T21:59:53.755Z,100187.59
2019-03-25T22:02:26.013Z,100188.92
2019-03-25T22:04:58.439Z,100188.06
2019-03-25T22:07:30.679Z,100187.43
2019-03-25T22:10:02.932Z,100193.41
2019-03-25T22:12:36.492Z,100188.73
2019-03-25T22:15:10.299Z,100182.28
2019-03-25T22:17:43.848Z,100190.86
2019-03-25T22:20:16.201Z,100191.28
2019-03-25T22:22:48.446Z,100189.87
2019-03-25T22:25:21.754Z,100188.16
2019-03-25T22:27:54.071Z,100194.99
2019-03-25T22:30:26.302Z,100198.27
2019-03-25T22:32:58.588Z,100199.53
2019-03-25T22:35:30.860Z,100203.73
2019-03-25T22:38:03.113Z,100203.25
2019-03-25T22:40:35.375Z,100212.67
2019-03-25T22:43:07.620Z,100210.00
2019-03-25T22:45:39.869Z,100214.48
2019-03-25T22:48:12.159Z,100213.29
2019-03-25T22:50:44.418Z,100218.71
2019-03-25T22:53:16.677Z,100216.13
2019-03-25T22:55:48.982Z,100219.66
2019-03-25T22:58:21.218Z,100221.95
2019-03-25T23:00:53.524Z,100228.05
2019-03-25T23:03:38.183Z,100222.80
2019-03-25T23:06:00.034Z,100235.29
2019-03-25T23:08:32.388Z,100237.88
2019-03-25T23:11:04.686Z,100243.22
2019-03-25T23:13:37.020Z,100241.75
2019-03-25T23:16:09.316Z,100241.23
2019-03-25T23:18:42.635Z,100253.05
2019-03-25T23:21:14.920Z,100247.98
2019-03-25T23:23:47.188Z,100251.38
2019-03-25T23:26:19.484Z,100258.52
2019-03-25T23:28:51.737Z,100258.47
2019-03-25T23:31:24.475Z,100260.40
2019-03-25T23:33:56.755Z,100259.99
2019-03-25T23:36:30.134Z,100263.38
2019-03-25T23:39:02.970Z,100260.19
2019-03-25T23:41:37.177Z,100261.02
2019-03-25T23:44:09.483Z,100256.66
2019-03-25T23:47:31.689Z,100260.20
2019-03-25T23:50:04.384Z,100257.98
2019-03-25T23:52:36.665Z,100256.78
2019-03-25T23:55:09.296Z,100249.84
2019-03-25T23:57:41.544Z,100253.84
